createdAt,value
2023-03-20T08:01:48.370Z,12.42
2023-03-20T08:04:19.500Z,12.57
2023-03-20T08:06:47.097Z,12.79
2023-03-20T08:09:14.695Z,12.75
2023-03-20T08:11:42.547Z,12.76
2023-03-20T08:14:09.963Z,12.82
2023-03-20T08:16:37.745Z,12.98
2023-03-20T08:19:06.272Z,12.92
2023-03-20T08:21:33.912Z,12.69
2023-03-20T08:24:01.492Z,12.58
2023-03-20T08:26:28.862Z,12.77
2023-03-20T08:28:56.266Z,12.76
2023-03-20T08:31:23.664Z,12.90
2023-03-20T08:33:52.063Z,13.23
2023-03-20T08:36:20.869Z,13.35
2023-03-20T08:38:50.287Z,13.20
2023-03-20T08:41:19.059Z,13.35
2023-03-20T08:43:47.699Z,13.26
2023-03-20T08:46:15.193Z,13.31
2023-03-20T08:48:42.632Z,13.31
2023-03-20T08:51:10.204Z,13.34
2023-03-20T08:53:37.557Z,13.63
2023-03-20T08:56:05.856Z,13.51
2023-03-20T08:58:33.345Z,13.63
2023-03-20T09:01:10.441Z,13.74
2023-03-20T09:03:38.133Z,13.64
2023-03-20T09:06:09.422Z,13.86
2023-03-20T09:08:36.909Z,14.00
2023-03-20T09:11:06.131Z,14.02
2023-03-20T09:13:33.921Z,13.92
2023-03-20T09:16:01.363Z,14.09
2023-03-20T09:18:28.869Z,14.11
2023-03-20T09:20:56.779Z,14.16
2023-03-20T09:23:24.234Z,14.08
2023-03-20T09:25:51.694Z,14.55
2023-03-20T09:28:19.634Z,14.39
2023-03-20T09:30:47.047Z,14.14
2023-03-20T09:33:15.005Z,14.18
2023-03-20T09:35:43.768Z,14.29
2023-03-20T09:38:12.385Z,14.44
2023-03-20T09:41:02.965Z,14.24
2023-03-20T09:44:20.984Z,14.94
2023-03-20T09:47:44.190Z,15.20
2023-03-20T09:50:54.942Z,15.30
2023-03-20T09:53:41.062Z,15.07
2023-03-20T09:56:25.344Z,15.45
2023-03-20T09:59:06.426Z,15.78
2023-03-20T10:01:55.265Z,15.91
2023-03-20T10:04:28.626Z,15.75
2023-03-20T10:06:56.971Z,15.55
2023-03-20T10:09:32.676Z,15.85
2023-03-20T10:12:49.677Z,15.98
2023-03-20T10:16:01.861Z,15.99
2023-03-20T10:18:32.803Z,16.00
2023-03-20T10:21:31.871Z,15.92
2023-03-20T10:24:15.833Z,15.86
2023-03-20T10:26:43.642Z,16.11
2023-03-20T10:29:53.003Z,15.61
2023-03-20T10:32:36.228Z,15.66
2023-03-20T10:36:04.724Z,15.64
2023-03-20T10:39:33.915Z,15.25
2023-03-20T10:42:10.422Z,15.14
2023-03-20T10:44:53.335Z,15.30
2023-03-20T10:47:25.080Z,14.53
2023-03-20T10:50:06.359Z,14.67
2023-03-20T10:52:40.554Z,14.92
2023-03-20T10:55:27.169Z,14.96
2023-03-20T10:58:26.642Z,14.87
2023-03-20T11:00:57.200Z,15.18
2023-03-20T11:03:29.631Z,15.07
2023-03-20T11:06:23.023Z,15.23
2023-03-20T11:08:53.333Z,14.86
2023-03-20T11:11:30.800Z,15.15
2023-03-20T11:14:09.333Z,15.21
2023-03-20T11:16:38.922Z,15.24
2023-03-20T11:19:11.657Z,15.39
2023-03-20T11:22:23.150Z,15.55
2023-03-20T11:25:02.578Z,15.74
2023-03-20T11:27:36.874Z,15.53
2023-03-20T11:30:08.399Z,15.84
2023-03-20T11:32:47.155Z,15.59
2023-03-20T11:35:26.335Z,15.85
2023-03-20T11:38:14.926Z,15.83
2023-03-20T11:40:42.321Z,15.88
2023-03-20T11:43:27.179Z,16.19
2023-03-20T11:46:01.430Z,16.29
2023-03-20T11:48:46.967Z,16.42
2023-03-20T11:51:21.763Z,16.61
2023-03-20T11:53:48.955Z,16.59
2023-03-20T11:56:26.636Z,16.53
2023-03-20T11:59:14.942Z,16.07
2023-03-20T12:01:53.579Z,16.68
2023-03-20T12:04:41.978Z,17.40
2023-03-20T12:07:35.103Z,17.49
2023-03-20T12:10:12.833Z,17.69
2023-03-20T12:12:54.841Z,18.26
2023-03-20T12:15:42.010Z,18.82
2023-03-20T12:19:01.641Z,19.01
2023-03-20T12:22:21.635Z,18.77
2023-03-20T12:25:52.804Z,18.89
2023-03-20T12:28:46.830Z,18.92
2023-03-20T12:32:03.850Z,18.57
2023-03-20T12:34:44.943Z,18.59
2023-03-20T12:37:13.685Z,17.98
2023-03-20T12:39:59.309Z,17.16
2023-03-20T12:43:02.700Z,17.69
2023-03-20T12:45:48.579Z,17.42
2023-03-20T12:48:38.141Z,16.64
2023-03-20T12:51:41.763Z,16.69
2023-03-20T12:55:21.160Z,17.31
2023-03-20T12:58:41.079Z,17.71
2023-03-20T13:01:27.639Z,17.43
2023-03-20T13:04:45.224Z,18.04
2023-03-20T13:07:25.951Z,17.93
2023-03-20T13:10:24.485Z,17.89
2023-03-20T13:13:13.026Z,18.17
2023-03-20T13:16:20.743Z,18.36
2023-03-20T13:19:49.248Z,18.56
2023-03-20T13:23:08.536Z,18.84
2023-03-20T13:25:53.683Z,18.62
2023-03-20T13:28:54.525Z,19.76
2023-03-20T13:32:02.224Z,20.03
2023-03-20T13:35:14.959Z,19.98
2023-03-20T13:38:07.338Z,20.15
2023-03-20T13:40:44.186Z,19.93
2023-03-20T13:43:49.893Z,20.31
2023-03-20T13:46:26.782Z,20.77
2023-03-20T13:48:58.785Z,20.70
2023-03-20T13:52:01.865Z,21.32
2023-03-20T13:55:11.482Z,20.86
2023-03-20T13:57:57.043Z,21.09
2023-03-20T14:00:46.404Z,21.69
2023-03-20T14:03:37.794Z,21.55
2023-03-20T14:06:47.405Z,21.93
2023-03-20T14:09:38.956Z,20.83
2023-03-20T14:12:13.458Z,20.70
2023-03-20T14:14:55.130Z,21.12
2023-03-20T14:17:30.876Z,21.20
2023-03-20T14:20:10.628Z,20.98
2023-03-20T14:22:44.573Z,21.00
2023-03-20T14:25:21.847Z,20.49
2023-03-20T14:28:27.256Z,20.39
2023-03-20T14:31:34.287Z,20.70
2023-03-20T14:34:12.172Z,21.46
2023-03-20T14:37:02.035Z,21.03
2023-03-20T14:40:15.622Z,21.02
2023-03-20T14:43:03.260Z,21.33
2023-03-20T14:46:03.709Z,21.66
2023-03-20T14:48:47.626Z,21.66
2023-03-20T14:51:41.416Z,22.15
2023-03-20T14:54:31.111Z,22.39
2023-03-20T14:57:26.559Z,21.62
2023-03-20T14:59:55.355Z,22.17
2023-03-20T15:02:36.412Z,22.48
2023-03-20T15:05:04.766Z,22.31
2023-03-20T15:07:39.559Z,22.78
2023-03-20T15:10:08.137Z,22.44
2023-03-20T15:12:37.583Z,22.87
2023-03-20T15:15:27.859Z,22.87
2023-03-20T15:17:55.316Z,23.15
2023-03-20T15:20:31.867Z,22.73
2023-03-20T15:23:02.554Z,22.25
2023-03-20T15:25:47.522Z,22.72
2023-03-20T15:28:26.100Z,22.37
2023-03-20T15:30:59.194Z,21.72
2023-03-20T15:33:45.787Z,21.37
2023-03-20T15:36:28.516Z,21.70
2023-03-20T15:39:27.246Z,21.40
2023-03-20T15:42:09.698Z,20.86
2023-03-20T15:44:41.747Z,21.53
2023-03-20T15:47:22.906Z,20.71
2023-03-20T15:50:00.719Z,20.76
2023-03-20T15:52:42.526Z,21.01
2023-03-20T15:55:20.008Z,20.33
2023-03-20T15:57:50.302Z,20.36
2023-03-20T16:00:34.209Z,20.35
2023-03-20T16:03:07.774Z,20.65
2023-03-20T16:05:36.184Z,20.89
2023-03-20T16:08:30.952Z,20.84
2023-03-20T16:11:19.084Z,21.02
2023-03-20T16:13:49.924Z,21.32
2023-03-20T16:16:24.613Z,21.06
2023-03-20T16:18:52.440Z,21.31
2023-03-20T16:21:32.136Z,21.65
2023-03-20T16:24:01.485Z,21.37
2023-03-20T16:26:29.217Z,21.64
2023-03-20T16:29:02.703Z,20.91
2023-03-20T16:31:35.228Z,20.49
2023-03-20T16:34:18.065Z,20.56
2023-03-20T16:36:56.454Z,20.70
2023-03-20T16:39:30.730Z,20.97
2023-03-20T16:42:23.995Z,20.30
2023-03-20T16:44:58.859Z,19.82
2023-03-20T16:47:38.416Z,20.13
2023-03-20T16:50:22.790Z,19.88
2023-03-20T16:52:58.680Z,19.15
2023-03-20T16:55:35.140Z,19.40
2023-03-20T16:58:07.352Z,19.37
2023-03-20T17:01:04.500Z,19.40
2023-03-20T17:03:49.476Z,19.18
2023-03-20T17:06:20.711Z,18.66
2023-03-20T17:09:13.181Z,18.75
2023-03-20T17:11:50.327Z,18.98
2023-03-20T17:14:20.792Z,18.96
2023-03-20T17:16:48.338Z,18.64
2023-03-20T17:19:19.352Z,18.98
2023-03-20T17:21:47.784Z,18.46
2023-03-20T17:24:17.417Z,18.49
2023-03-20T17:26:57.195Z,18.80
2023-03-20T17:29:24.621Z,18.55
2023-03-20T17:31:52.690Z,18.26
2023-03-20T17:34:20.110Z,18.26
2023-03-20T17:36:48.959Z,18.28
2023-03-20T17:39:21.097Z,18.17
2023-03-20T17:41:48.625Z,17.95
2023-03-20T17:44:16.075Z,18.05
2023-03-20T17:46:57.277Z,17.88
2023-03-20T17:49:27.521Z,18.17
2023-03-20T17:51:56.187Z,18.19
2023-03-20T17:54:23.687Z,18.17
2023-03-20T17:56:51.133Z,17.74
2023-03-20T17:59:18.493Z,17.86
2023-03-20T18:01:46.041Z,17.80
2023-03-20T18:04:13.530Z,17.65
2023-03-20T18:06:40.996Z,17.83
2023-03-20T18:09:13.338Z,17.69
2023-03-20T18:11:41.172Z,17.49
2023-03-20T18:14:08.688Z,17.48
2023-03-20T18:16:36.259Z,17.70
2023-03-20T18:19:03.820Z,17.79
2023-03-20T18:21:31.232Z,17.89
2023-03-20T18:23:58.651Z,17.80
2023-03-20T18:26:27.652Z,17.58
2023-03-20T18:28:56.233Z,17.67
2023-03-20T18:31:23.854Z,17.49
2023-03-20T18:33:53.405Z,17.43
2023-03-20T18:36:24.462Z,17.41
2023-03-20T18:38:52.581Z,17.77
2023-03-20T18:41:20.917Z,17.66
2023-03-20T18:43:48.674Z,17.44
2023-03-20T18:46:26.021Z,17.48
2023-03-20T18:48:54.446Z,17.68
2023-03-20T18:51:21.926Z,17.40
2023-03-20T18:53:49.500Z,17.19
2023-03-20T18:56:25.900Z,16.98
2023-03-20T18:58:54.174Z,16.76
2023-03-20T19:01:22.080Z,16.79
2023-03-20T19:03:50.088Z,16.54
2023-03-20T19:06:23.145Z,16.70
2023-03-20T19:08:52.439Z,16.82
2023-03-20T19:11:21.733Z,16.86
2023-03-20T19:13:53.624Z,16.85
2023-03-20T19:16:26.803Z,16.70
2023-03-20T19:18:58.993Z,16.41
2023-03-20T19:21:27.117Z,16.17
2023-03-20T19:24:03.557Z,15.94
2023-03-20T19:26:34.764Z,15.99
2023-03-20T19:29:09.195Z,15.85
2023-03-20T19:31:37.152Z,15.80
2023-03-20T19:34:05.391Z,15.98
2023-03-20T19:36:37.716Z,15.85
2023-03-20T19:39:12.522Z,15.77
2023-03-20T19:41:39.848Z,15.50
2023-03-20T19:44:07.395Z,15.81
2023-03-20T19:46:42.729Z,15.73
2023-03-20T19:49:30.194Z,15.79
2023-03-20T19:51:58.015Z,15.87
2023-03-20T19:54:25.567Z,15.91
2023-03-20T19:56:52.945Z,16.08
2023-03-20T19:59:21.159Z,15.98
2023-03-20T20:01:48.853Z,15.86
2023-03-20T20:04:16.470Z,15.68
2023-03-20T20:06:47.129Z,15.64
2023-03-20T20:09:15.711Z,15.68
2023-03-20T20:11:44.086Z,15.90
2023-03-20T20:14:14.593Z,15.85
2023-03-20T20:16:43.341Z,15.67
2023-03-20T20:19:11.751Z,15.47
2023-03-20T20:22:17.251Z,15.72
2023-03-20T20:24:27.469Z,15.66
2023-03-20T20:27:15.381Z,15.64
2023-03-20T20:29:50.942Z,15.43
2023-03-20T20:32:23.718Z,15.21
2023-03-20T20:38:27.035Z,15.31
2023-03-20T20:40:30.973Z,15.43
2023-03-20T20:43:01.659Z,15.58
2023-03-20T20:45:32.044Z,15.42
2023-03-20T20:48:01.939Z,15.55
2023-03-20T20:50:33.465Z,15.35
2023-03-20T20:53:00.884Z,15.26
2023-03-20T20:55:28.385Z,14.92
2023-03-20T20:57:56.149Z,14.76
2023-03-20T21:00:41.209Z,14.80
2023-03-20T21:03:13.346Z,14.97
2023-03-20T21:05:42.961Z,14.62
2023-03-20T21:08:12.043Z,14.48
2023-03-20T21:10:40.103Z,14.66
2023-03-20T21:13:08.654Z,14.66
2023-03-20T21:15:36.722Z,14.87
2023-03-20T21:18:04.888Z,14.96
2023-03-20T21:20:32.875Z,14.64
2023-03-20T21:23:00.935Z,14.64
2023-03-20T21:25:40.520Z,14.51
2023-03-20T21:28:26.518Z,14.82
2023-03-20T21:31:20.888Z,14.74
2023-03-20T21:33:41.816Z,14.56
2023-03-20T21:36:10.067Z,14.60
2023-03-20T21:39:05.899Z,14.35
2023-03-20T21:41:24.948Z,14.47
2023-03-20T21:43:52.274Z,14.42
2023-03-20T21:49:54.513Z,14.09
2023-03-20T21:55:21.635Z,14.34
2023-03-20T22:03:22.362Z,14.28
2023-03-20T22:06:50.592Z,14.30
2023-03-20T22:12:22.967Z,14.24
2023-03-20T22:15:11.991Z,14.14
2023-03-20T22:21:03.963Z,14.03
2023-03-20T22:26:28.520Z,14.28
2023-03-20T22:31:55.389Z,14.19
2023-03-20T22:40:26.357Z,13.87
2023-03-20T22:45:15.073Z,13.76
2023-03-20T22:47:42.831Z,13.78
2023-03-20T22:50:10.980Z,13.76
2023-03-20T22:52:48.546Z,13.69
2023-03-20T22:55:17.821Z,13.58
2023-03-20T22:57:59.957Z,13.50
2023-03-20T23:00:33.541Z,13.48
2023-03-20T23:03:33.371Z,13.62
2023-03-20T23:05:50.516Z,13.53
2023-03-20T23:08:18.241Z,13.62
2023-03-20T23:10:50.764Z,13.46
